createdAt,value
2023-01-15T00:00:18.454Z,9.73
2023-01-15T00:02:44.876Z,9.70
2023-01-15T00:05:11.290Z,9.70
2023-01-15T00:07:37.635Z,9.68
2023-01-15T00:10:04.406Z,9.66
2023-01-15T00:12:30.767Z,9.65
2023-01-15T00:14:58.242Z,9.64
2023-01-15T00:17:24.905Z,9.66
2023-01-15T00:19:51.213Z,9.64
2023-01-15T00:22:17.544Z,9.65
2023-01-15T00:25:02.250Z,9.65
2023-01-15T00:27:40.502Z,9.66
2023-01-15T00:30:10.820Z,9.67
2023-01-15T00:32:37.187Z,9.69
2023-01-15T00:35:03.731Z,9.68
2023-01-15T00:37:30.058Z,9.70
2023-01-15T00:39:56.565Z,9.70
2023-01-15T00:42:22.974Z,9.72
2023-01-15T00:44:49.650Z,9.73
2023-01-15T00:47:16.023Z,9.74
2023-01-15T00:49:43.034Z,9.76
2023-01-15T00:52:10.417Z,9.76
2023-01-15T00:54:36.961Z,9.78
2023-01-15T00:57:03.411Z,9.79
2023-01-15T00:59:29.751Z,9.79
2023-01-15T01:01:56.312Z,9.79
2023-01-15T01:04:22.716Z,9.79
2023-01-15T01:06:49.061Z,9.78
2023-01-15T01:09:16.703Z,9.78
2023-01-15T01:11:43.636Z,9.77
2023-01-15T01:14:11.541Z,9.76
2023-01-15T01:16:40.094Z,9.74
2023-01-15T01:19:10.406Z,9.73
2023-01-15T01:21:38.535Z,9.71
2023-01-15T01:24:05.630Z,9.68
2023-01-15T01:26:32.226Z,9.66
2023-01-15T01:28:58.595Z,9.64
2023-01-15T01:31:25.256Z,9.63
2023-01-15T01:33:54.040Z,9.60
2023-01-15T01:36:25.723Z,9.59
2023-01-15T01:38:52.326Z,9.59
2023-01-15T01:41:19.270Z,9.57
2023-01-15T01:44:02.225Z,9.56
2023-01-15T01:46:34.253Z,9.54
2023-01-15T01:49:08.200Z,9.53
2023-01-15T01:51:40.188Z,9.52
2023-01-15T01:54:09.708Z,9.50
2023-01-15T01:56:36.582Z,9.47
2023-01-15T01:59:05.498Z,9.45
2023-01-15T02:01:32.075Z,9.43
2023-01-15T02:03:58.898Z,9.43
2023-01-15T02:06:27.023Z,9.40
2023-01-15T02:08:54.404Z,9.38
2023-01-15T02:11:23.278Z,9.37
2023-01-15T02:13:59.470Z,9.36
2023-01-15T02:16:36.758Z,9.33
2023-01-15T02:19:03.174Z,9.31
2023-01-15T02:21:35.867Z,9.29
2023-01-15T02:24:18.769Z,9.27
2023-01-15T02:27:00.451Z,9.28
2023-01-15T02:29:32.936Z,9.25
2023-01-15T02:32:05.615Z,9.23
2023-01-15T02:34:36.577Z,9.22
2023-01-15T02:37:16.834Z,9.22
2023-01-15T02:39:47.395Z,9.21
2023-01-15T02:42:16.158Z,9.19
2023-01-15T02:44:49.123Z,9.18
2023-01-15T02:47:19.032Z,9.17
2023-01-15T02:49:47.842Z,9.17
2023-01-15T02:52:21.444Z,9.15
2023-01-15T02:54:53.102Z,9.16
2023-01-15T02:57:21.876Z,9.14
2023-01-15T02:59:50.063Z,9.15
2023-01-15T03:02:26.884Z,9.14
2023-01-15T03:05:02.491Z,9.15
2023-01-15T03:07:36.929Z,9.14
2023-01-15T03:10:06.294Z,9.13
2023-01-15T03:12:58.740Z,9.12
2023-01-15T03:15:50.589Z,9.10
2023-01-15T03:18:21.709Z,9.10
2023-01-15T03:20:53.202Z,9.09
2023-01-15T03:23:24.231Z,9.08
2023-01-15T03:25:51.471Z,9.07
2023-01-15T03:28:23.575Z,9.07
2023-01-15T03:30:50.107Z,9.05
2023-01-15T03:33:16.499Z,9.05
2023-01-15T03:36:00.717Z,9.06
2023-01-15T03:38:37.249Z,9.05
2023-01-15T03:41:25.592Z,9.06
2023-01-15T03:44:16.219Z,9.06
2023-01-15T03:47:24.491Z,9.05
2023-01-15T03:50:01.277Z,9.04
2023-01-15T03:52:46.468Z,9.02
2023-01-15T03:55:25.122Z,9.02
2023-01-15T03:57:59.084Z,9.02
2023-01-15T04:00:32.578Z,9.00
2023-01-15T04:03:03.846Z,9.00
2023-01-15T04:05:31.884Z,8.99
2023-01-15T04:07:59.655Z,8.97
2023-01-15T04:10:26.088Z,8.97
2023-01-15T04:12:52.518Z,8.97
2023-01-15T04:15:19.335Z,8.96
2023-01-15T04:17:45.784Z,8.96
2023-01-15T04:20:12.743Z,8.96
2023-01-15T04:22:39.583Z,8.96
2023-01-15T04:25:07.355Z,8.97
2023-01-15T04:27:33.815Z,8.96
2023-01-15T04:30:00.457Z,8.96
2023-01-15T04:32:27.391Z,8.96
2023-01-15T04:34:54.048Z,8.93
2023-01-15T04:37:20.414Z,8.92
2023-01-15T04:39:46.949Z,8.91
2023-01-15T04:42:32.940Z,8.91
2023-01-15T04:44:59.474Z,8.90
2023-01-15T04:47:25.960Z,8.88
2023-01-15T04:49:52.384Z,8.86
2023-01-15T04:52:18.962Z,8.86
2023-01-15T04:54:45.457Z,8.86
2023-01-15T04:57:12.165Z,8.85
2023-01-15T04:59:38.779Z,8.83
2023-01-15T05:02:06.776Z,8.82
2023-01-15T05:04:34.560Z,8.81
2023-01-15T05:07:03.353Z,8.79
2023-01-15T05:09:30.646Z,8.76
2023-01-15T05:11:57.474Z,8.75
2023-01-15T05:14:24.178Z,8.72
2023-01-15T05:16:50.738Z,8.69
2023-01-15T05:19:17.271Z,8.68
2023-01-15T05:21:45.138Z,8.65
2023-01-15T05:24:17.275Z,8.65
2023-01-15T05:26:44.599Z,8.63
2023-01-15T05:29:12.029Z,8.62
2023-01-15T05:31:39.507Z,8.63
2023-01-15T05:34:06.037Z,8.64
2023-01-15T05:36:32.873Z,8.64
2023-01-15T05:39:01.570Z,8.63
2023-01-15T05:41:48.159Z,8.63
2023-01-15T05:47:19.920Z,8.65
2023-01-15T05:49:48.433Z,8.63
2023-01-15T05:52:14.871Z,8.63
2023-01-15T05:54:41.460Z,8.62
2023-01-15T05:57:11.692Z,8.63
2023-01-15T05:59:38.964Z,8.63
2023-01-15T06:02:05.878Z,8.63
2023-01-15T06:04:32.368Z,8.63
2023-01-15T06:06:59.249Z,8.64
2023-01-15T06:09:27.965Z,8.63
2023-01-15T06:11:55.351Z,8.63
2023-01-15T06:14:21.856Z,8.65
2023-01-15T06:16:48.333Z,8.64
2023-01-15T06:19:15.088Z,8.65
2023-01-15T06:21:41.865Z,8.65
2023-01-15T06:24:08.903Z,8.66
2023-01-15T06:26:50.503Z,8.67
2023-01-15T06:29:18.922Z,8.68
2023-01-15T06:31:45.957Z,8.69
2023-01-15T06:34:12.597Z,8.71
2023-01-15T06:36:39.135Z,8.70
2023-01-15T06:39:05.745Z,8.72
2023-01-15T06:41:50.813Z,8.73
2023-01-15T06:44:37.222Z,8.74
2023-01-15T06:47:23.213Z,8.75
2023-01-15T06:49:59.108Z,8.75
2023-01-15T06:52:26.769Z,8.75
2023-01-15T06:54:53.549Z,8.74
2023-01-15T06:57:20.425Z,8.73
2023-01-15T06:59:48.361Z,8.73
2023-01-15T07:02:14.741Z,8.72
2023-01-15T07:04:41.118Z,8.72
2023-01-15T07:07:07.470Z,8.73
2023-01-15T07:09:33.933Z,8.74
2023-01-15T07:12:00.392Z,8.75
2023-01-15T07:14:31.155Z,8.77
2023-01-15T07:16:59.120Z,8.79
2023-01-15T07:19:26.120Z,8.81
2023-01-15T07:21:52.469Z,8.83
2023-01-15T07:24:18.865Z,8.85
2023-01-15T07:26:46.064Z,8.86
2023-01-15T07:29:12.820Z,8.87
2023-01-15T07:31:40.729Z,8.90
2023-01-15T07:34:07.386Z,8.90
2023-01-15T07:36:33.764Z,8.92
2023-01-15T07:39:00.151Z,8.93
2023-01-15T07:41:45.201Z,8.93
2023-01-15T07:44:30.488Z,8.91
2023-01-15T07:47:15.832Z,8.92
2023-01-15T07:49:46.464Z,8.89
2023-01-15T07:52:22.771Z,8.89
2023-01-15T07:54:50.367Z,8.87
2023-01-15T07:57:20.242Z,8.86
2023-01-15T07:59:46.798Z,8.84
2023-01-15T08:02:13.510Z,8.82
2023-01-15T08:04:40.294Z,8.80
2023-01-15T08:07:06.865Z,8.78
2023-01-15T08:09:33.309Z,8.76
2023-01-15T08:12:19.488Z,8.74
2023-01-15T08:15:04.751Z,8.74
2023-01-15T08:17:34.757Z,8.73
2023-01-15T08:20:02.204Z,8.69
2023-01-15T08:22:28.713Z,8.67
2023-01-15T08:24:55.097Z,8.66
2023-01-15T08:27:21.465Z,8.64
2023-01-15T08:29:47.847Z,8.65
2023-01-15T08:32:14.193Z,8.65
2023-01-15T08:34:40.710Z,8.65
2023-01-15T08:37:07.070Z,8.65
2023-01-15T08:39:33.646Z,8.66
2023-01-15T08:42:00.148Z,8.67
2023-01-15T08:44:26.564Z,8.69
2023-01-15T08:46:53.479Z,8.70
2023-01-15T08:49:21.052Z,8.73
2023-01-15T08:51:51.441Z,8.74
2023-01-15T08:54:20.077Z,8.76
2023-01-15T08:56:47.008Z,8.77
2023-01-15T08:59:14.012Z,8.78
2023-01-15T09:01:41.036Z,8.79
2023-01-15T09:04:07.595Z,8.81
2023-01-15T09:06:34.057Z,8.81
2023-01-15T09:09:00.464Z,8.81
2023-01-15T09:11:27.343Z,8.82
2023-01-15T09:13:54.438Z,8.81
2023-01-15T09:16:21.088Z,8.81
2023-01-15T09:18:47.686Z,8.81
2023-01-15T09:21:14.444Z,8.81
2023-01-15T09:23:40.862Z,8.84
2023-01-15T09:26:08.127Z,8.86
2023-01-15T09:28:35.489Z,8.91
2023-01-15T09:31:02.065Z,8.96
2023-01-15T09:33:28.677Z,9.02
2023-01-15T09:35:55.073Z,9.09
2023-01-15T09:38:21.844Z,9.15
2023-01-15T09:40:57.599Z,9.23
2023-01-15T09:43:58.722Z,9.29
2023-01-15T09:46:54.771Z,9.32
2023-01-15T09:49:44.853Z,9.36
2023-01-15T09:52:22.233Z,9.39
2023-01-15T09:54:57.711Z,9.42
2023-01-15T09:57:25.448Z,9.43
2023-01-15T09:59:54.648Z,9.47
2023-01-15T10:02:29.064Z,9.51
2023-01-15T10:05:09.860Z,9.54
2023-01-15T10:07:50.880Z,9.58
2023-01-15T10:10:23.139Z,9.62
2023-01-15T10:12:54.494Z,9.69
2023-01-15T10:15:39.112Z,9.74
2023-01-15T10:18:08.866Z,9.78
2023-01-15T10:20:42.901Z,9.80
2023-01-15T10:23:15.057Z,9.83
2023-01-15T10:26:03.503Z,9.85
2023-01-15T10:28:46.204Z,9.88
2023-01-15T10:31:20.997Z,9.88
2023-01-15T10:34:18.508Z,9.90
2023-01-15T10:37:31.386Z,9.92
2023-01-15T10:40:35.553Z,9.97
2023-01-15T10:43:17.085Z,9.98
2023-01-15T10:45:51.922Z,10.00
2023-01-15T10:48:24.935Z,9.99
2023-01-15T10:50:51.945Z,10.00
2023-01-15T10:53:31.483Z,10.02
2023-01-15T10:56:20.793Z,10.05
2023-01-15T10:58:56.842Z,10.07
2023-01-15T11:01:27.223Z,10.10
2023-01-15T11:03:54.335Z,10.11
2023-01-15T11:06:23.326Z,10.15
2023-01-15T11:09:09.070Z,10.18
2023-01-15T11:12:01.486Z,10.19
2023-01-15T11:14:57.711Z,10.19
2023-01-15T11:17:50.937Z,10.18
2023-01-15T11:20:43.322Z,10.18
2023-01-15T11:23:13.611Z,10.18
2023-01-15T11:25:49.969Z,10.18
2023-01-15T11:28:17.130Z,10.18
2023-01-15T11:30:45.225Z,10.18
2023-01-15T11:33:27.888Z,10.19
2023-01-15T11:35:59.503Z,10.19
2023-01-15T11:38:31.613Z,10.20
2023-01-15T11:41:05.257Z,10.20
2023-01-15T11:43:50.855Z,10.20
2023-01-15T11:46:46.512Z,10.22
2023-01-15T11:49:39.768Z,10.24
2023-01-15T11:52:15.935Z,10.25
2023-01-15T11:54:46.392Z,10.26
2023-01-15T11:57:31.145Z,10.26
2023-01-15T11:59:58.324Z,10.27
2023-01-15T12:02:46.759Z,10.28
2023-01-15T12:05:19.433Z,10.26
2023-01-15T12:07:47.797Z,10.24
2023-01-15T12:11:00.027Z,10.22
2023-01-15T12:13:40.081Z,10.23
2023-01-15T12:16:18.859Z,10.22
2023-01-15T12:18:54.349Z,10.22
2023-01-15T12:21:37.755Z,10.24
2023-01-15T12:24:37.398Z,10.24
2023-01-15T12:27:37.917Z,10.24
2023-01-15T12:30:21.562Z,10.23
2023-01-15T12:32:58.628Z,10.22
2023-01-15T12:35:31.518Z,10.22
2023-01-15T12:38:22.633Z,10.22
2023-01-15T12:40:56.458Z,10.23
2023-01-15T12:43:45.617Z,10.25
2023-01-15T12:46:19.077Z,10.28
2023-01-15T12:48:51.703Z,10.29
2023-01-15T12:51:27.018Z,10.30
2023-01-15T12:53:59.094Z,10.31
2023-01-15T12:56:32.997Z,10.32
2023-01-15T12:59:25.426Z,10.33
2023-01-15T13:02:13.496Z,10.33
2023-01-15T13:04:48.604Z,10.32
2023-01-15T13:07:36.158Z,10.30
2023-01-15T13:10:10.879Z,10.28
2023-01-15T13:12:37.272Z,10.26
2023-01-15T13:15:05.092Z,10.25
2023-01-15T13:17:46.886Z,10.25
2023-01-15T13:20:20.269Z,10.26
2023-01-15T13:23:04.621Z,10.25
2023-01-15T13:26:02.996Z,10.24
2023-01-15T13:28:52.117Z,10.22
2023-01-15T13:31:51.921Z,10.20
2023-01-15T13:34:41.499Z,10.22
2023-01-15T13:37:32.640Z,10.22
2023-01-15T13:40:04.613Z,10.22
2023-01-15T13:42:32.044Z,10.20
2023-01-15T13:45:02.759Z,10.19
2023-01-15T13:47:32.273Z,10.20
2023-01-15T13:50:04.892Z,10.21
2023-01-15T13:52:33.687Z,10.19
2023-01-15T13:55:09.225Z,10.18
2023-01-15T13:57:38.261Z,10.17
2023-01-15T14:00:29.403Z,10.15
2023-01-15T14:02:59.151Z,10.14
2023-01-15T14:05:30.041Z,10.13
2023-01-15T14:07:57.186Z,10.09
2023-01-15T14:10:32.936Z,10.08
2023-01-15T14:13:37.830Z,10.05
2023-01-15T14:16:34.155Z,10.03
2023-01-15T14:19:10.524Z,10.00
2023-01-15T14:22:09.199Z,9.97
2023-01-15T14:25:12.620Z,9.94
2023-01-15T14:28:02.112Z,9.87
2023-01-15T14:30:50.283Z,9.82
2023-01-15T14:33:53.908Z,9.77
2023-01-15T14:36:26.401Z,9.72
2023-01-15T14:38:57.900Z,9.70
2023-01-15T14:41:30.635Z,9.64
2023-01-15T14:43:59.826Z,9.61
2023-01-15T14:46:32.539Z,9.59
2023-01-15T14:48:59.082Z,9.56
2023-01-15T14:51:28.713Z,9.55
2023-01-15T14:54:18.380Z,9.54
2023-01-15T14:56:50.187Z,9.53
2023-01-15T14:59:25.599Z,9.52
2023-01-15T15:01:53.080Z,9.52
2023-01-15T15:04:36.841Z,9.51
2023-01-15T15:07:25.271Z,9.51
2023-01-15T15:10:01.662Z,9.50
2023-01-15T15:12:53.255Z,9.50
2023-01-15T15:15:25.748Z,9.51
2023-01-15T15:18:01.170Z,9.50
2023-01-15T15:20:34.034Z,9.50
2023-01-15T15:23:31.071Z,9.50
2023-01-15T15:26:01.002Z,9.50
2023-01-15T15:28:28.551Z,9.48
2023-01-15T15:31:01.234Z,9.47
2023-01-15T15:33:45.956Z,9.46
2023-01-15T15:36:12.569Z,9.44
2023-01-15T15:38:42.143Z,9.43
2023-01-15T15:41:12.725Z,9.41
2023-01-15T15:44:09.477Z,9.39
2023-01-15T15:46:54.337Z,9.39
2023-01-15T15:49:21.066Z,9.34
2023-01-15T15:51:51.914Z,9.30
2023-01-15T15:54:30.628Z,9.24
2023-01-15T15:57:17.928Z,9.20
2023-01-15T15:59:51.116Z,9.15
2023-01-15T16:02:34.355Z,9.12
2023-01-15T16:05:21.622Z,9.11
2023-01-15T16:07:48.014Z,9.09
2023-01-15T16:10:18.441Z,9.09
2023-01-15T16:12:57.715Z,9.08
2023-01-15T16:15:29.376Z,9.07
2023-01-15T16:17:57.866Z,9.07
2023-01-15T16:20:25.482Z,9.04
2023-01-15T16:22:58.802Z,9.02
2023-01-15T16:25:43.348Z,9.00
2023-01-15T16:28:27.369Z,8.98
2023-01-15T16:30:58.854Z,8.95
2023-01-15T16:33:26.156Z,8.90
2023-01-15T16:35:58.159Z,8.86
2023-01-15T16:38:25.957Z,8.81
2023-01-15T16:40:53.070Z,8.76
2023-01-15T16:43:22.745Z,8.70
2023-01-15T16:46:16.917Z,8.65
2023-01-15T16:48:47.795Z,8.60
2023-01-15T16:51:32.142Z,8.57
2023-01-15T16:54:02.034Z,8.53
2023-01-15T16:56:51.961Z,8.52
2023-01-15T16:59:40.588Z,8.52
2023-01-15T17:02:20.868Z,8.53
2023-01-15T17:04:48.509Z,8.53
2023-01-15T17:07:37.483Z,8.56
2023-01-15T17:10:06.856Z,8.59
2023-01-15T17:12:38.419Z,8.60
2023-01-15T17:15:16.804Z,8.63
2023-01-15T17:17:51.083Z,8.65
2023-01-15T17:20:19.115Z,8.66
2023-01-15T17:22:49.031Z,8.68
2023-01-15T17:25:24.756Z,8.70
2023-01-15T17:27:51.249Z,8.72
2023-01-15T17:30:17.987Z,8.73
2023-01-15T17:32:44.797Z,8.77
2023-01-15T17:35:24.776Z,8.80
2023-01-15T17:37:51.428Z,8.83
2023-01-15T17:40:18.091Z,8.87
2023-01-15T17:42:44.803Z,8.90
2023-01-15T17:45:22.675Z,8.94
2023-01-15T17:47:49.857Z,8.97
2023-01-15T17:50:17.328Z,8.98
2023-01-15T17:52:44.330Z,9.01
2023-01-15T17:55:31.385Z,9.04
2023-01-15T17:58:16.301Z,9.07
2023-01-15T18:01:01.406Z,9.06
2023-01-15T18:03:47.676Z,9.08
2023-01-15T18:06:15.482Z,9.11
2023-01-15T18:08:46.116Z,9.11
2023-01-15T18:11:12.463Z,9.10
2023-01-15T18:13:41.866Z,9.10
2023-01-15T18:16:08.795Z,9.09
2023-01-15T18:18:35.334Z,9.09
2023-01-15T18:21:02.948Z,9.09
2023-01-15T18:23:30.652Z,9.09
2023-01-15T18:25:56.983Z,9.10
2023-01-15T18:28:23.320Z,9.11
2023-01-15T18:30:49.765Z,9.11
2023-01-15T18:33:16.132Z,9.13
2023-01-15T18:35:42.484Z,9.13
2023-01-15T18:38:08.809Z,9.13
2023-01-15T18:40:35.164Z,9.13
2023-01-15T18:43:19.883Z,9.13
2023-01-15T18:46:06.140Z,9.12
2023-01-15T18:48:32.488Z,9.15
2023-01-15T18:51:00.126Z,9.15
2023-01-15T18:53:26.596Z,9.13
2023-01-15T18:55:52.919Z,9.12
2023-01-15T18:58:19.331Z,9.11
2023-01-15T19:00:45.679Z,9.09
2023-01-15T19:03:12.052Z,9.10
2023-01-15T19:05:38.489Z,9.09
2023-01-15T19:08:05.018Z,9.09
2023-01-15T19:10:31.443Z,9.08
2023-01-15T19:12:57.936Z,9.09
2023-01-15T19:15:42.967Z,9.09
2023-01-15T19:18:29.336Z,9.08
2023-01-15T19:20:55.719Z,9.08
2023-01-15T19:23:22.236Z,9.08
2023-01-15T19:25:49.398Z,9.07
2023-01-15T19:28:18.350Z,9.08
2023-01-15T19:31:09.748Z,9.07
2023-01-15T19:33:36.307Z,9.06
2023-01-15T19:36:03.617Z,9.05
2023-01-15T19:38:30.240Z,9.04
2023-01-15T19:41:16.586Z,9.03
2023-01-15T19:44:01.607Z,9.07
2023-01-15T19:46:46.541Z,9.04
2023-01-15T19:49:38.069Z,9.03
2023-01-15T19:52:23.253Z,8.99
2023-01-15T19:54:56.041Z,8.97
2023-01-15T19:57:22.372Z,8.96
2023-01-15T19:59:49.395Z,8.96
2023-01-15T20:02:16.023Z,8.96
2023-01-15T20:04:45.472Z,8.96
2023-01-15T20:07:12.369Z,8.95
2023-01-15T20:09:42.579Z,8.96
2023-01-15T20:12:31.017Z,8.96
2023-01-15T20:14:57.825Z,8.94
2023-01-15T20:17:24.514Z,8.93
2023-01-15T20:19:50.851Z,8.91
2023-01-15T20:22:17.216Z,8.91
2023-01-15T20:24:44.350Z,8.89
2023-01-15T20:27:12.204Z,8.88
2023-01-15T20:29:41.534Z,8.87
2023-01-15T20:32:07.985Z,8.85
2023-01-15T20:34:39.164Z,8.83
2023-01-15T20:37:06.677Z,8.81
2023-01-15T20:39:33.079Z,8.79
2023-01-15T20:42:18.545Z,8.77
2023-01-15T20:44:53.794Z,8.78
2023-01-15T20:47:41.404Z,8.79
2023-01-15T20:50:09.709Z,8.79
2023-01-15T20:52:37.032Z,8.79
2023-01-15T20:55:06.274Z,8.81
2023-01-15T20:57:40.444Z,8.81
2023-01-15T21:00:14.099Z,8.82
2023-01-15T21:02:40.568Z,8.83
2023-01-15T21:05:08.456Z,8.83
2023-01-15T21:07:35.997Z,8.84
2023-01-15T21:10:03.791Z,8.83
2023-01-15T21:12:30.236Z,8.85
2023-01-15T21:14:56.699Z,8.86
2023-01-15T21:17:23.103Z,8.87
2023-01-15T21:19:49.532Z,8.89
2023-01-15T21:22:16.081Z,8.91
2023-01-15T21:24:42.875Z,8.93
2023-01-15T21:27:09.199Z,8.93
2023-01-15T21:29:35.523Z,8.95
2023-01-15T21:32:01.896Z,8.96
2023-01-15T21:34:28.236Z,8.96
2023-01-15T21:36:54.702Z,8.97
2023-01-15T21:39:21.113Z,8.97
2023-01-15T21:42:08.745Z,8.98
2023-01-15T21:44:36.185Z,8.99
2023-01-15T21:47:05.851Z,8.98
2023-01-15T21:49:33.468Z,8.98
2023-01-15T21:52:01.219Z,8.98
2023-01-15T21:54:28.256Z,8.97
2023-01-15T21:56:55.096Z,8.95
2023-01-15T21:59:22.220Z,8.93
2023-01-15T22:01:49.462Z,8.92
2023-01-15T22:04:16.454Z,8.91
2023-01-15T22:06:42.796Z,8.90
2023-01-15T22:09:09.152Z,8.88
2023-01-15T22:11:46.255Z,8.87
2023-01-15T22:14:18.693Z,8.88
2023-01-15T22:16:45.778Z,8.87
2023-01-15T22:19:19.945Z,8.86
2023-01-15T22:21:50.424Z,8.85
2023-01-15T22:24:18.899Z,8.83
2023-01-15T22:26:53.444Z,8.83
2023-01-15T22:29:40.962Z,8.84
2023-01-15T22:32:09.536Z,8.84
2023-01-15T22:34:35.933Z,8.83
2023-01-15T22:37:02.462Z,8.83
2023-01-15T22:39:29.422Z,8.82
2023-01-15T22:42:14.675Z,8.80
2023-01-15T22:44:43.371Z,8.80
2023-01-15T22:47:09.697Z,8.79
2023-01-15T22:49:36.122Z,8.78
2023-01-15T22:52:03.492Z,8.79
2023-01-15T22:54:29.885Z,8.79
2023-01-15T22:56:56.358Z,8.79
2023-01-15T22:59:24.014Z,8.79
2023-01-15T23:01:50.474Z,8.79
2023-01-15T23:04:22.633Z,8.81
2023-01-15T23:06:53.181Z,8.79
2023-01-15T23:09:22.529Z,8.80
2023-01-15T23:11:51.225Z,8.78
2023-01-15T23:14:18.989Z,8.79
2023-01-15T23:16:45.407Z,8.80
2023-01-15T23:19:12.282Z,8.80
2023-01-15T23:21:39.948Z,8.81
2023-01-15T23:24:06.862Z,8.83
2023-01-15T23:26:34.475Z,8.84
2023-01-15T23:29:01.215Z,8.86
2023-01-15T23:31:28.159Z,8.87
2023-01-15T23:33:55.146Z,8.88
2023-01-15T23:36:22.365Z,8.87
2023-01-15T23:38:48.763Z,8.87
2023-01-15T23:41:41.259Z,8.87
2023-01-15T23:44:37.694Z,8.88
2023-01-15T23:47:04.843Z,8.87
2023-01-15T23:49:31.251Z,8.87
2023-01-15T23:51:57.941Z,8.86
2023-01-15T23:54:28.487Z,8.86
2023-01-15T23:56:56.097Z,8.86
2023-01-15T23:59:22.679Z,8.86
